Helenville, WI (53137)

8:43 AM CDT on October 30, 2014 (GMT -0500)
WIDOT Johnson Creek - I-94 @ CTH Y | Change Station
CLOSE
Current Station
Personal Weather Station
Location: Johnson Creek, WI
Elevation: 835 ft
Nearby Weather Stations

Elev 835 ft 43.09 °N, 88.78 °W | Updated 44 minutes ago

Overcast
Overcast
33 °F
Feels Like 33 °F
N
1
Wind Variable Wind from North
Gusts 2.0 mph

Today
High -- | Low -- °F
--% Chance of Precip.
Yesterday
High -- | Low -- °F
Precip. -- in
7:26 AM 5:49 PM
Waxing Crescent, 44% visible
Pressure 30.11 in
Visibility 10.0 miles
Clouds Overcast 10000 ft
Windchill 33 °F
Dew Point 31 °F
Humidity 92%
Rainfall -999.00 in
Snow Depth Not available.
UV 0 out of 12
Pollen .10 out of 12
Air Quality Not available.
Flu Activity Not available.
METAR KRYV 301335Z AUTO 00000KT 10SM OVC100 01/01 A3011 RMK AO2 T00070006

More Conditions Fewer Conditions

Pressure 30.11 in
Visibility 10.0 miles
Clouds Overcast 10000 ft
Windchill 33 °F
Dew Point 31 °F
Humidity 92%
Rainfall -999.00 in
Snow Depth Not available.
UV 0 out of 12
Pollen .10 out of 12
Air Quality Not available.
Flu Activity Not available.
METAR KRYV 301335Z AUTO 00000KT 10SM OVC100 01/01 A3011 RMK AO2 T00070006

More Conditions Fewer Conditions

10-Day Weather Forecast

Almanac

Astronomy

Oct. 30, 2014 Rise Set
Actual Time
Civil Twilight
Nautical Twilight
Astronomical Twilight
Moon
Length of Visible Light
Length of Day
Tomorrow will be .
, % of the Moon is Illuminated

Today's Extremes

State Highs State Lows

Community

WunderPhotos

Upload Photos

1,766,358 photos uploaded!

WunderBlogs® & News

Nearby

Air Quality

  Air Quality AQ Index Pollutant
Not available.

Snow Depth

Station Depth Elevation

Earthquake Activity

City Distance Mag. Time & Date
Minimum magnitude displayed is 2.5.

Coastal Water Temperatures

Place Temperature

Nearby Weather Stations